CheckWX is a tool to help pilots better visualize weather data.  It is not intended as a substitute for an official pre-flight weather briefing.

16:37:04 UTC

CYNM METAR
Matagami Airport
Matagami, Canada
Current

37 mins ago

CYNM 101600Z AUTO 17010KT 140V210 9SM OVC170 29/19 A2980 RMK SLP092 DENSITY ALT 2900FT
Observed
Jul-10 @ 16:00 UTC
Wind
  • 170° at 10 KTS
Visibility
9 SM
Flight Rules
VFR
Cloud Levels
  • Overcast at 17,000' AGL
Temperature
29°C / 84°F
Dewpoint
19°C / 66°F
Humidity
55%
Altimeter
29.8" Hg
Pressure
1009.12 hPa
Previous

2 hours ago

CYNM 101500Z AUTO 19007KT 160V230 9SM BKN200 OVC220 28/19 A2982 RMK SLP097 DENSITY ALT 2700FT
Observed
Jul-10 @ 15:00 UTC
Wind
  • 190° at 7 KTS
Visibility
9 SM
Flight Rules
VFR
Cloud Levels
  • Broken at 20,000' AGL
  • Overcast at 22,000' AGL
Temperature
28°C / 82°F
Dewpoint
19°C / 66°F
Humidity
58%
Altimeter
29.82" Hg
Pressure
1009.82 hPa
Previous

3 hours ago

CYNM 101400Z AUTO VRB04KT 9SM FEW140 28/19 A2982 RMK SLP099 DENSITY ALT 2700FT
Observed
Jul-10 @ 14:00 UTC
Wind
  • Variable at 4 KTS
Visibility
9 SM
Flight Rules
VFR
Cloud Levels
  • Few at 14,000' AGL
Temperature
28°C / 82°F
Dewpoint
19°C / 66°F
Humidity
58%
Altimeter
29.82" Hg
Pressure
1009.82 hPa